sensor_id;sensor_type;location;lat;lon;timestamp;P1;durP1;ratioP1;P2;durP2;ratioP2
5923;SDS011;2987;50.884;14.818;2022-07-10T00:00:47;5.47;;;2.40;;
5923;SDS011;2987;50.884;14.818;2022-07-10T00:03:13;5.33;;;2.50;;
5923;SDS011;2987;50.884;14.818;2022-07-10T00:05:39;4.60;;;2.30;;
5923;SDS011;2987;50.884;14.818;2022-07-10T00:08:06;2.47;;;2.03;;
5923;SDS011;2987;50.884;14.818;2022-07-10T00:10:32;4.87;;;2.40;;
5923;SDS011;2987;50.884;14.818;2022-07-10T00:12:59;6.23;;;2.33;;
5923;SDS011;2987;50.884;14.818;2022-07-10T00:15:25;5.63;;;2.50;;
5923;SDS011;2987;50.884;14.818;2022-07-10T00:17:51;7.90;;;2.57;;
5923;SDS011;2987;50.884;14.818;2022-07-10T00:20:17;3.33;;;2.40;;
5923;SDS011;2987;50.884;14.818;2022-07-10T00:22:44;7.80;;;2.97;;
5923;SDS011;2987;50.884;14.818;2022-07-10T00:25:11;8.80;;;3.20;;
5923;SDS011;2987;50.884;14.818;2022-07-10T00:27:39;7.43;;;3.20;;
5923;SDS011;2987;50.884;14.818;2022-07-10T00:30:07;5.97;;;3.17;;
5923;SDS011;2987;50.884;14.818;2022-07-10T00:32:34;10.47;;;3.97;;
5923;SDS011;2987;50.884;14.818;2022-07-10T00:35:01;6.37;;;3.60;;
5923;SDS011;2987;50.884;14.818;2022-07-10T00:37:28;7.47;;;3.50;;
5923;SDS011;2987;50.884;14.818;2022-07-10T00:39:54;8.60;;;3.67;;
5923;SDS011;2987;50.884;14.818;2022-07-10T00:42:21;6.03;;;3.70;;
5923;SDS011;2987;50.884;14.818;2022-07-10T00:44:48;6.80;;;3.43;;
5923;SDS011;2987;50.884;14.818;2022-07-10T00:47:14;7.30;;;3.40;;
5923;SDS011;2987;50.884;14.818;2022-07-10T00:49:44;11.97;;;3.87;;
5923;SDS011;2987;50.884;14.818;2022-07-10T00:52:14;6.20;;;3.40;;
5923;SDS011;2987;50.884;14.818;2022-07-10T00:54:43;7.93;;;4.23;;
5923;SDS011;2987;50.884;14.818;2022-07-10T00:57:12;7.50;;;3.60;;
5923;SDS011;2987;50.884;14.818;2022-07-10T00:59:41;7.47;;;3.27;;
5923;SDS011;2987;50.884;14.818;2022-07-10T01:02:08;8.43;;;3.10;;
5923;SDS011;2987;50.884;14.818;2022-07-10T01:04:35;7.93;;;2.60;;
5923;SDS011;2987;50.884;14.818;2022-07-10T01:07:02;7.83;;;2.93;;
5923;SDS011;2987;50.884;14.818;2022-07-10T01:09:29;3.90;;;2.13;;
5923;SDS011;2987;50.884;14.818;2022-07-10T01:11:56;8.90;;;2.70;;
5923;SDS011;2987;50.884;14.818;2022-07-10T01:14:22;5.70;;;2.43;;
5923;SDS011;2987;50.884;14.818;2022-07-10T01:16:54;3.83;;;2.00;;
5923;SDS011;2987;50.884;14.818;2022-07-10T01:19:20;5.63;;;2.53;;
5923;SDS011;2987;50.884;14.818;2022-07-10T01:21:46;6.10;;;2.57;;
5923;SDS011;2987;50.884;14.818;2022-07-10T01:24:12;7.37;;;2.40;;
5923;SDS011;2987;50.884;14.818;2022-07-10T01:26:39;7.37;;;2.37;;
5923;SDS011;2987;50.884;14.818;2022-07-10T01:29:08;3.33;;;2.07;;
5923;SDS011;2987;50.884;14.818;2022-07-10T01:31:35;8.70;;;2.20;;
5923;SDS011;2987;50.884;14.818;2022-07-10T01:34:02;3.87;;;2.00;;
5923;SDS011;2987;50.884;14.818;2022-07-10T01:36:31;10.47;;;2.47;;
5923;SDS011;2987;50.884;14.818;2022-07-10T01:38:59;11.53;;;2.30;;
5923;SDS011;2987;50.884;14.818;2022-07-10T01:41:25;7.50;;;2.63;;
5923;SDS011;2987;50.884;14.818;2022-07-10T01:43:52;3.07;;;1.73;;
5923;SDS011;2987;50.884;14.818;2022-07-10T01:46:18;8.13;;;2.03;;
5923;SDS011;2987;50.884;14.818;2022-07-10T01:48:45;8.67;;;2.30;;
5923;SDS011;2987;50.884;14.818;2022-07-10T01:51:11;7.23;;;1.90;;
5923;SDS011;2987;50.884;14.818;2022-07-10T01:53:38;7.33;;;2.13;;
5923;SDS011;2987;50.884;14.818;2022-07-10T01:56:06;5.90;;;2.20;;
5923;SDS011;2987;50.884;14.818;2022-07-10T01:58:34;5.60;;;2.10;;
5923;SDS011;2987;50.884;14.818;2022-07-10T02:01:01;11.47;;;2.80;;
5923;SDS011;2987;50.884;14.818;2022-07-10T02:03:28;7.33;;;2.07;;
5923;SDS011;2987;50.884;14.818;2022-07-10T02:06:15;9.40;;;2.53;;
5923;SDS011;2987;50.884;14.818;2022-07-10T02:08:41;3.87;;;1.70;;
5923;SDS011;2987;50.884;14.818;2022-07-10T02:11:08;5.43;;;2.00;;
5923;SDS011;2987;50.884;14.818;2022-07-10T02:13:34;5.77;;;2.57;;
5923;SDS011;2987;50.884;14.818;2022-07-10T02:16:00;14.23;;;2.57;;
5923;SDS011;2987;50.884;14.818;2022-07-10T02:18:27;7.53;;;2.13;;
5923;SDS011;2987;50.884;14.818;2022-07-10T02:20:54;9.17;;;2.30;;
5923;SDS011;2987;50.884;14.818;2022-07-10T02:23:20;7.53;;;2.30;;
5923;SDS011;2987;50.884;14.818;2022-07-10T02:25:46;11.33;;;2.17;;
5923;SDS011;2987;50.884;14.818;2022-07-10T02:28:12;5.63;;;1.90;;
5923;SDS011;2987;50.884;14.818;2022-07-10T02:30:38;8.67;;;2.10;;
5923;SDS011;2987;50.884;14.818;2022-07-10T02:33:04;6.90;;;1.90;;
5923;SDS011;2987;50.884;14.818;2022-07-10T02:35:30;6.23;;;1.70;;
5923;SDS011;2987;50.884;14.818;2022-07-10T02:37:57;6.50;;;2.00;;
5923;SDS011;2987;50.884;14.818;2022-07-10T02:40:23;8.63;;;2.00;;
5923;SDS011;2987;50.884;14.818;2022-07-10T02:42:49;6.23;;;1.80;;
5923;SDS011;2987;50.884;14.818;2022-07-10T02:45:16;9.30;;;2.20;;
5923;SDS011;2987;50.884;14.818;2022-07-10T02:47:42;9.20;;;2.57;;
5923;SDS011;2987;50.884;14.818;2022-07-10T02:50:08;5.30;;;1.80;;
5923;SDS011;2987;50.884;14.818;2022-07-10T02:52:35;6.87;;;1.90;;
5923;SDS011;2987;50.884;14.818;2022-07-10T02:55:07;6.63;;;1.90;;
5923;SDS011;2987;50.884;14.818;2022-07-10T02:57:34;5.50;;;2.00;;
5923;SDS011;2987;50.884;14.818;2022-07-10T03:00:00;7.80;;;1.97;;
5923;SDS011;2987;50.884;14.818;2022-07-10T03:02:26;6.07;;;1.60;;
5923;SDS011;2987;50.884;14.818;2022-07-10T03:04:52;6.70;;;1.97;;
5923;SDS011;2987;50.884;14.818;2022-07-10T03:07:18;6.77;;;1.80;;
5923;SDS011;2987;50.884;14.818;2022-07-10T03:09:45;5.03;;;1.70;;
5923;SDS011;2987;50.884;14.818;2022-07-10T03:12:11;5.27;;;2.00;;
5923;SDS011;2987;50.884;14.818;2022-07-10T03:14:37;13.60;;;2.13;;
5923;SDS011;2987;50.884;14.818;2022-07-10T03:17:03;6.07;;;1.70;;
5923;SDS011;2987;50.884;14.818;2022-07-10T03:19:29;9.40;;;2.17;;
5923;SDS011;2987;50.884;14.818;2022-07-10T03:21:55;5.90;;;2.00;;
5923;SDS011;2987;50.884;14.818;2022-07-10T03:24:21;7.73;;;1.80;;
5923;SDS011;2987;50.884;14.818;2022-07-10T03:26:47;7.93;;;1.63;;
5923;SDS011;2987;50.884;14.818;2022-07-10T03:29:14;4.47;;;1.60;;
5923;SDS011;2987;50.884;14.818;2022-07-10T03:31:40;9.10;;;1.77;;
5923;SDS011;2987;50.884;14.818;2022-07-10T03:34:11;6.00;;;1.73;;
5923;SDS011;2987;50.884;14.818;2022-07-10T03:36:38;9.23;;;2.13;;
5923;SDS011;2987;50.884;14.818;2022-07-10T03:39:05;6.97;;;2.00;;
5923;SDS011;2987;50.884;14.818;2022-07-10T03:41:31;6.53;;;1.67;;
5923;SDS011;2987;50.884;14.818;2022-07-10T03:43:57;6.83;;;1.73;;
5923;SDS011;2987;50.884;14.818;2022-07-10T03:46:23;6.10;;;1.80;;
5923;SDS011;2987;50.884;14.818;2022-07-10T03:48:49;6.87;;;2.00;;
5923;SDS011;2987;50.884;14.818;2022-07-10T03:51:17;8.73;;;1.97;;
5923;SDS011;2987;50.884;14.818;2022-07-10T03:53:43;5.50;;;1.70;;
5923;SDS011;2987;50.884;14.818;2022-07-10T03:56:10;3.10;;;1.63;;
5923;SDS011;2987;50.884;14.818;2022-07-10T03:58:56;6.70;;;2.13;;
5923;SDS011;2987;50.884;14.818;2022-07-10T04:01:22;11.50;;;1.90;;
5923;SDS011;2987;50.884;14.818;2022-07-10T04:03:49;9.30;;;1.90;;
5923;SDS011;2987;50.884;14.818;2022-07-10T04:06:15;6.00;;;1.60;;
5923;SDS011;2987;50.884;14.818;2022-07-10T04:08:41;7.60;;;1.53;;
5923;SDS011;2987;50.884;14.818;2022-07-10T04:11:07;5.77;;;1.70;;
5923;SDS011;2987;50.884;14.818;2022-07-10T04:13:33;9.50;;;1.80;;
5923;SDS011;2987;50.884;14.818;2022-07-10T04:15:59;10.30;;;1.90;;
5923;SDS011;2987;50.884;14.818;2022-07-10T04:18:25;4.43;;;1.83;;
5923;SDS011;2987;50.884;14.818;2022-07-10T04:20:51;6.07;;;1.80;;
5923;SDS011;2987;50.884;14.818;2022-07-10T04:23:17;8.87;;;1.97;;
5923;SDS011;2987;50.884;14.818;2022-07-10T04:25:44;9.77;;;1.80;;
5923;SDS011;2987;50.884;14.818;2022-07-10T04:28:10;5.80;;;1.53;;
5923;SDS011;2987;50.884;14.818;2022-07-10T04:30:36;6.33;;;1.60;;
5923;SDS011;2987;50.884;14.818;2022-07-10T04:33:02;5.03;;;1.63;;
5923;SDS011;2987;50.884;14.818;2022-07-10T04:35:29;7.23;;;1.70;;
5923;SDS011;2987;50.884;14.818;2022-07-10T04:37:55;5.30;;;1.73;;
5923;SDS011;2987;50.884;14.818;2022-07-10T04:40:23;5.07;;;1.70;;
5923;SDS011;2987;50.884;14.818;2022-07-10T04:42:49;4.73;;;1.73;;
5923;SDS011;2987;50.884;14.818;2022-07-10T04:45:15;6.63;;;1.53;;
5923;SDS011;2987;50.884;14.818;2022-07-10T04:47:41;13.17;;;1.73;;
5923;SDS011;2987;50.884;14.818;2022-07-10T04:50:07;6.77;;;2.20;;
5923;SDS011;2987;50.884;14.818;2022-07-10T04:52:34;5.93;;;1.77;;
5923;SDS011;2987;50.884;14.818;2022-07-10T04:55:01;8.60;;;1.50;;
5923;SDS011;2987;50.884;14.818;2022-07-10T04:57:27;5.33;;;1.67;;
5923;SDS011;2987;50.884;14.818;2022-07-10T04:59:53;6.07;;;2.20;;
5923;SDS011;2987;50.884;14.818;2022-07-10T05:02:20;11.23;;;1.77;;
5923;SDS011;2987;50.884;14.818;2022-07-10T05:04:46;9.77;;;1.80;;
5923;SDS011;2987;50.884;14.818;2022-07-10T05:07:12;5.93;;;1.90;;
5923;SDS011;2987;50.884;14.818;2022-07-10T05:09:39;7.60;;;1.73;;
5923;SDS011;2987;50.884;14.818;2022-07-10T05:12:06;6.10;;;1.50;;
5923;SDS011;2987;50.884;14.818;2022-07-10T05:14:33;7.10;;;1.67;;
5923;SDS011;2987;50.884;14.818;2022-07-10T05:16:59;4.90;;;1.47;;
5923;SDS011;2987;50.884;14.818;2022-07-10T05:19:25;7.03;;;1.70;;
5923;SDS011;2987;50.884;14.818;2022-07-10T05:21:51;8.53;;;1.80;;
5923;SDS011;2987;50.884;14.818;2022-07-10T05:24:17;4.37;;;1.70;;
5923;SDS011;2987;50.884;14.818;2022-07-10T05:26:43;4.57;;;1.30;;
5923;SDS011;2987;50.884;14.818;2022-07-10T05:29:09;6.93;;;1.53;;
5923;SDS011;2987;50.884;14.818;2022-07-10T05:31:35;6.30;;;1.87;;
5923;SDS011;2987;50.884;14.818;2022-07-10T05:34:02;5.53;;;1.50;;
5923;SDS011;2987;50.884;14.818;2022-07-10T05:36:28;4.77;;;1.30;;
5923;SDS011;2987;50.884;14.818;2022-07-10T05:38:54;5.87;;;1.77;;
5923;SDS011;2987;50.884;14.818;2022-07-10T05:41:20;8.40;;;1.50;;
5923;SDS011;2987;50.884;14.818;2022-07-10T05:43:46;5.93;;;1.30;;
5923;SDS011;2987;50.884;14.818;2022-07-10T05:46:13;5.17;;;1.30;;
5923;SDS011;2987;50.884;14.818;2022-07-10T05:48:39;5.03;;;1.27;;
5923;SDS011;2987;50.884;14.818;2022-07-10T05:51:05;8.63;;;1.60;;
5923;SDS011;2987;50.884;14.818;2022-07-10T05:53:31;7.53;;;1.60;;
5923;SDS011;2987;50.884;14.818;2022-07-10T05:56:00;6.13;;;1.30;;
5923;SDS011;2987;50.884;14.818;2022-07-10T05:58:27;4.63;;;1.37;;
5923;SDS011;2987;50.884;14.818;2022-07-10T06:00:55;6.97;;;1.90;;
5923;SDS011;2987;50.884;14.818;2022-07-10T06:03:21;5.77;;;1.10;;
5923;SDS011;2987;50.884;14.818;2022-07-10T06:05:47;7.87;;;1.70;;
5923;SDS011;2987;50.884;14.818;2022-07-10T06:08:13;6.50;;;1.30;;
5923;SDS011;2987;50.884;14.818;2022-07-10T06:10:39;5.03;;;1.30;;
5923;SDS011;2987;50.884;14.818;2022-07-10T06:13:06;8.07;;;1.73;;
5923;SDS011;2987;50.884;14.818;2022-07-10T06:15:32;4.40;;;1.67;;
5923;SDS011;2987;50.884;14.818;2022-07-10T06:17:59;6.13;;;1.33;;
5923;SDS011;2987;50.884;14.818;2022-07-10T06:20:25;8.80;;;1.33;;
5923;SDS011;2987;50.884;14.818;2022-07-10T06:22:51;5.10;;;1.47;;
5923;SDS011;2987;50.884;14.818;2022-07-10T06:25:22;6.93;;;1.83;;
5923;SDS011;2987;50.884;14.818;2022-07-10T06:27:49;5.07;;;1.40;;
5923;SDS011;2987;50.884;14.818;2022-07-10T06:30:21;4.73;;;1.50;;
5923;SDS011;2987;50.884;14.818;2022-07-10T06:32:47;9.03;;;1.50;;
5923;SDS011;2987;50.884;14.818;2022-07-10T06:35:13;7.90;;;1.43;;
5923;SDS011;2987;50.884;14.818;2022-07-10T06:37:39;5.70;;;1.27;;
5923;SDS011;2987;50.884;14.818;2022-07-10T06:40:05;4.03;;;1.10;;
5923;SDS011;2987;50.884;14.818;2022-07-10T06:42:33;2.40;;;0.80;;
5923;SDS011;2987;50.884;14.818;2022-07-10T06:45:00;2.80;;;1.13;;
5923;SDS011;2987;50.884;14.818;2022-07-10T06:47:26;3.57;;;1.00;;
5923;SDS011;2987;50.884;14.818;2022-07-10T06:50:12;6.53;;;1.10;;
5923;SDS011;2987;50.884;14.818;2022-07-10T06:52:38;5.63;;;1.03;;
5923;SDS011;2987;50.884;14.818;2022-07-10T06:55:05;4.80;;;0.97;;
5923;SDS011;2987;50.884;14.818;2022-07-10T06:57:31;1.67;;;0.80;;
5923;SDS011;2987;50.884;14.818;2022-07-10T06:59:58;2.97;;;0.90;;
5923;SDS011;2987;50.884;14.818;2022-07-10T07:02:25;3.77;;;0.90;;
5923;SDS011;2987;50.884;14.818;2022-07-10T07:04:51;1.77;;;0.83;;
5923;SDS011;2987;50.884;14.818;2022-07-10T07:07:17;4.60;;;2.20;;
5923;SDS011;2987;50.884;14.818;2022-07-10T07:09:43;3.43;;;1.70;;
5923;SDS011;2987;50.884;14.818;2022-07-10T07:12:11;2.83;;;1.23;;
5923;SDS011;2987;50.884;14.818;2022-07-10T07:14:37;4.70;;;1.23;;
5923;SDS011;2987;50.884;14.818;2022-07-10T07:17:05;2.77;;;1.00;;
5923;SDS011;2987;50.884;14.818;2022-07-10T07:19:34;1.53;;;0.70;;
5923;SDS011;2987;50.884;14.818;2022-07-10T07:22:21;1.60;;;0.80;;
5923;SDS011;2987;50.884;14.818;2022-07-10T07:25:07;1.80;;;0.70;;
5923;SDS011;2987;50.884;14.818;2022-07-10T07:27:35;3.80;;;1.17;;
5923;SDS011;2987;50.884;14.818;2022-07-10T07:32:31;3.67;;;1.60;;
5923;SDS011;2987;50.884;14.818;2022-07-10T07:34:58;2.40;;;1.17;;
5923;SDS011;2987;50.884;14.818;2022-07-10T07:37:41;4.53;;;1.47;;
5923;SDS011;2987;50.884;14.818;2022-07-10T07:40:10;3.90;;;1.20;;
5923;SDS011;2987;50.884;14.818;2022-07-10T07:42:38;3.40;;;0.83;;
5923;SDS011;2987;50.884;14.818;2022-07-10T07:45:06;3.70;;;1.20;;
5923;SDS011;2987;50.884;14.818;2022-07-10T07:50:22;2.13;;;0.90;;
5923;SDS011;2987;50.884;14.818;2022-07-10T07:57:45;2.10;;;0.90;;
5923;SDS011;2987;50.884;14.818;2022-07-10T08:00:12;1.67;;;0.80;;
5923;SDS011;2987;50.884;14.818;2022-07-10T08:02:40;1.13;;;0.80;;
5923;SDS011;2987;50.884;14.818;2022-07-10T08:05:06;3.87;;;1.17;;
5923;SDS011;2987;50.884;14.818;2022-07-10T08:07:33;3.63;;;0.80;;
5923;SDS011;2987;50.884;14.818;2022-07-10T08:10:02;2.33;;;1.20;;
5923;SDS011;2987;50.884;14.818;2022-07-10T08:12:29;4.33;;;0.93;;
5923;SDS011;2987;50.884;14.818;2022-07-10T08:14:56;1.17;;;0.77;;
5923;SDS011;2987;50.884;14.818;2022-07-10T08:17:24;2.10;;;0.87;;
5923;SDS011;2987;50.884;14.818;2022-07-10T08:19:51;3.00;;;0.90;;
5923;SDS011;2987;50.884;14.818;2022-07-10T08:22:18;1.80;;;1.00;;
5923;SDS011;2987;50.884;14.818;2022-07-10T08:24:45;2.30;;;0.73;;
5923;SDS011;2987;50.884;14.818;2022-07-10T08:27:11;2.80;;;1.00;;
5923;SDS011;2987;50.884;14.818;2022-07-10T08:29:38;2.40;;;0.97;;
5923;SDS011;2987;50.884;14.818;2022-07-10T08:32:04;1.13;;;0.73;;
5923;SDS011;2987;50.884;14.818;2022-07-10T08:34:31;4.13;;;0.90;;
5923;SDS011;2987;50.884;14.818;2022-07-10T08:36:58;3.57;;;0.93;;
5923;SDS011;2987;50.884;14.818;2022-07-10T08:39:24;2.37;;;0.90;;
5923;SDS011;2987;50.884;14.818;2022-07-10T08:41:51;1.63;;;1.00;;
5923;SDS011;2987;50.884;14.818;2022-07-10T08:44:17;3.10;;;1.03;;
5923;SDS011;2987;50.884;14.818;2022-07-10T08:46:44;5.40;;;1.40;;
5923;SDS011;2987;50.884;14.818;2022-07-10T08:49:10;2.77;;;0.97;;
5923;SDS011;2987;50.884;14.818;2022-07-10T08:56:57;3.90;;;0.90;;
5923;SDS011;2987;50.884;14.818;2022-07-10T08:59:25;3.50;;;1.07;;
5923;SDS011;2987;50.884;14.818;2022-07-10T09:04:20;2.20;;;1.00;;
5923;SDS011;2987;50.884;14.818;2022-07-10T09:06:48;3.97;;;1.20;;
5923;SDS011;2987;50.884;14.818;2022-07-10T09:09:16;1.57;;;0.77;;
5923;SDS011;2987;50.884;14.818;2022-07-10T09:11:42;4.60;;;1.20;;
5923;SDS011;2987;50.884;14.818;2022-07-10T09:14:10;2.63;;;1.10;;
5923;SDS011;2987;50.884;14.818;2022-07-10T09:16:38;5.33;;;1.10;;
5923;SDS011;2987;50.884;14.818;2022-07-10T09:19:22;3.43;;;1.30;;
5923;SDS011;2987;50.884;14.818;2022-07-10T09:21:51;3.60;;;1.07;;
5923;SDS011;2987;50.884;14.818;2022-07-10T09:24:19;2.80;;;1.13;;
5923;SDS011;2987;50.884;14.818;2022-07-10T09:26:57;3.60;;;1.20;;
5923;SDS011;2987;50.884;14.818;2022-07-10T09:29:26;2.80;;;0.80;;
5923;SDS011;2987;50.884;14.818;2022-07-10T09:31:55;3.40;;;1.10;;
5923;SDS011;2987;50.884;14.818;2022-07-10T09:37:20;3.23;;;1.30;;
5923;SDS011;2987;50.884;14.818;2022-07-10T09:47:24;2.07;;;1.07;;
5923;SDS011;2987;50.884;14.818;2022-07-10T09:49:50;2.10;;;0.87;;
5923;SDS011;2987;50.884;14.818;2022-07-10T09:52:16;2.97;;;1.00;;
5923;SDS011;2987;50.884;14.818;2022-07-10T09:54:45;4.37;;;0.97;;
5923;SDS011;2987;50.884;14.818;2022-07-10T09:57:12;3.43;;;1.00;;
5923;SDS011;2987;50.884;14.818;2022-07-10T09:59:41;1.63;;;1.00;;
5923;SDS011;2987;50.884;14.818;2022-07-10T10:02:08;2.43;;;0.90;;
5923;SDS011;2987;50.884;14.818;2022-07-10T10:04:37;1.17;;;0.90;;
5923;SDS011;2987;50.884;14.818;2022-07-10T10:07:03;4.83;;;1.07;;
5923;SDS011;2987;50.884;14.818;2022-07-10T10:09:38;1.67;;;1.03;;
5923;SDS011;2987;50.884;14.818;2022-07-10T10:12:09;2.50;;;1.13;;
5923;SDS011;2987;50.884;14.818;2022-07-10T10:14:42;1.40;;;0.83;;
5923;SDS011;2987;50.884;14.818;2022-07-10T10:17:09;4.30;;;1.00;;
5923;SDS011;2987;50.884;14.818;2022-07-10T10:19:37;5.43;;;0.93;;
5923;SDS011;2987;50.884;14.818;2022-07-10T10:22:26;3.30;;;1.27;;
5923;SDS011;2987;50.884;14.818;2022-07-10T10:24:54;2.30;;;1.03;;
5923;SDS011;2987;50.884;14.818;2022-07-10T10:27:30;2.40;;;1.07;;
5923;SDS011;2987;50.884;14.818;2022-07-10T10:29:57;5.37;;;1.30;;
5923;SDS011;2987;50.884;14.818;2022-07-10T10:32:24;3.47;;;1.00;;
5923;SDS011;2987;50.884;14.818;2022-07-10T10:34:58;4.27;;;1.00;;
5923;SDS011;2987;50.884;14.818;2022-07-10T10:37:32;3.60;;;1.63;;
5923;SDS011;2987;50.884;14.818;2022-07-10T10:40:04;3.10;;;1.10;;
5923;SDS011;2987;50.884;14.818;2022-07-10T10:42:36;3.83;;;0.83;;
5923;SDS011;2987;50.884;14.818;2022-07-10T10:48:07;7.00;;;1.23;;
5923;SDS011;2987;50.884;14.818;2022-07-10T10:50:45;2.00;;;1.00;;
5923;SDS011;2987;50.884;14.818;2022-07-10T10:58:27;3.27;;;1.30;;
5923;SDS011;2987;50.884;14.818;2022-07-10T11:01:27;8.17;;;1.40;;
5923;SDS011;2987;50.884;14.818;2022-07-10T11:04:13;3.27;;;1.10;;
5923;SDS011;2987;50.884;14.818;2022-07-10T11:06:43;5.07;;;1.10;;
5923;SDS011;2987;50.884;14.818;2022-07-10T11:09:28;2.90;;;1.20;;
5923;SDS011;2987;50.884;14.818;2022-07-10T11:12:10;3.43;;;1.33;;
5923;SDS011;2987;50.884;14.818;2022-07-10T11:14:39;3.57;;;1.10;;
5923;SDS011;2987;50.884;14.818;2022-07-10T11:17:10;4.60;;;1.30;;
5923;SDS011;2987;50.884;14.818;2022-07-10T11:19:37;5.57;;;1.30;;
5923;SDS011;2987;50.884;14.818;2022-07-10T11:33:16;6.40;;;1.80;;
5923;SDS011;2987;50.884;14.818;2022-07-10T11:35:44;3.70;;;1.23;;
5923;SDS011;2987;50.884;14.818;2022-07-10T11:38:11;4.30;;;1.37;;
5923;SDS011;2987;50.884;14.818;2022-07-10T11:40:38;3.57;;;1.20;;
5923;SDS011;2987;50.884;14.818;2022-07-10T11:45:32;2.63;;;1.40;;
5923;SDS011;2987;50.884;14.818;2022-07-10T11:48:03;4.37;;;1.30;;
5923;SDS011;2987;50.884;14.818;2022-07-10T11:50:34;3.63;;;1.00;;
5923;SDS011;2987;50.884;14.818;2022-07-10T11:53:02;4.53;;;1.10;;
5923;SDS011;2987;50.884;14.818;2022-07-10T11:55:30;3.03;;;1.20;;
5923;SDS011;2987;50.884;14.818;2022-07-10T11:58:17;3.43;;;1.20;;
5923;SDS011;2987;50.884;14.818;2022-07-10T12:01:02;4.50;;;1.40;;
5923;SDS011;2987;50.884;14.818;2022-07-10T12:03:32;3.27;;;1.53;;
5923;SDS011;2987;50.884;14.818;2022-07-10T12:06:03;2.90;;;1.60;;
5923;SDS011;2987;50.884;14.818;2022-07-10T12:08:41;2.90;;;1.50;;
5923;SDS011;2987;50.884;14.818;2022-07-10T12:11:12;8.33;;;1.50;;
5923;SDS011;2987;50.884;14.818;2022-07-10T12:13:39;4.03;;;1.50;;
5923;SDS011;2987;50.884;14.818;2022-07-10T12:16:05;3.80;;;1.33;;
5923;SDS011;2987;50.884;14.818;2022-07-10T12:18:32;4.33;;;1.20;;
5923;SDS011;2987;50.884;14.818;2022-07-10T12:21:00;7.23;;;1.40;;
5923;SDS011;2987;50.884;14.818;2022-07-10T12:23:27;2.97;;;1.50;;
5923;SDS011;2987;50.884;14.818;2022-07-10T12:25:55;8.00;;;1.70;;
5923;SDS011;2987;50.884;14.818;2022-07-10T12:28:21;2.60;;;1.40;;
5923;SDS011;2987;50.884;14.818;2022-07-10T12:30:48;5.27;;;1.80;;
5923;SDS011;2987;50.884;14.818;2022-07-10T12:33:18;8.60;;;1.50;;
5923;SDS011;2987;50.884;14.818;2022-07-10T12:35:49;4.70;;;1.60;;
5923;SDS011;2987;50.884;14.818;2022-07-10T12:38:20;4.40;;;1.63;;
5923;SDS011;2987;50.884;14.818;2022-07-10T12:40:51;4.23;;;1.87;;
5923;SDS011;2987;50.884;14.818;2022-07-10T12:43:32;5.93;;;1.50;;
5923;SDS011;2987;50.884;14.818;2022-07-10T12:46:15;5.00;;;1.60;;
5923;SDS011;2987;50.884;14.818;2022-07-10T12:49:00;5.47;;;1.30;;
5923;SDS011;2987;50.884;14.818;2022-07-10T12:51:32;6.10;;;1.50;;
5923;SDS011;2987;50.884;14.818;2022-07-10T12:54:08;4.77;;;1.63;;
5923;SDS011;2987;50.884;14.818;2022-07-10T12:56:36;3.53;;;1.73;;
5923;SDS011;2987;50.884;14.818;2022-07-10T12:59:05;6.67;;;1.60;;
5923;SDS011;2987;50.884;14.818;2022-07-10T13:01:41;5.87;;;1.47;;
5923;SDS011;2987;50.884;14.818;2022-07-10T13:04:08;6.50;;;1.90;;
5923;SDS011;2987;50.884;14.818;2022-07-10T13:06:35;5.37;;;1.53;;
5923;SDS011;2987;50.884;14.818;2022-07-10T13:09:02;5.13;;;1.97;;
5923;SDS011;2987;50.884;14.818;2022-07-10T13:11:46;4.47;;;1.40;;
5923;SDS011;2987;50.884;14.818;2022-07-10T13:14:12;5.60;;;1.43;;
5923;SDS011;2987;50.884;14.818;2022-07-10T13:16:38;4.63;;;1.53;;
5923;SDS011;2987;50.884;14.818;2022-07-10T13:19:04;5.33;;;1.83;;
5923;SDS011;2987;50.884;14.818;2022-07-10T13:21:30;4.93;;;1.40;;
5923;SDS011;2987;50.884;14.818;2022-07-10T13:23:57;5.07;;;1.30;;
5923;SDS011;2987;50.884;14.818;2022-07-10T13:26:23;5.00;;;1.70;;
5923;SDS011;2987;50.884;14.818;2022-07-10T13:28:49;5.57;;;1.67;;
5923;SDS011;2987;50.884;14.818;2022-07-10T13:31:25;5.63;;;1.80;;
5923;SDS011;2987;50.884;14.818;2022-07-10T13:33:52;5.10;;;1.60;;
5923;SDS011;2987;50.884;14.818;2022-07-10T13:36:18;6.70;;;1.70;;
5923;SDS011;2987;50.884;14.818;2022-07-10T13:38:44;6.40;;;2.00;;
5923;SDS011;2987;50.884;14.818;2022-07-10T13:41:16;3.97;;;1.60;;
5923;SDS011;2987;50.884;14.818;2022-07-10T13:43:42;6.93;;;2.17;;
5923;SDS011;2987;50.884;14.818;2022-07-10T13:46:08;5.60;;;1.60;;
5923;SDS011;2987;50.884;14.818;2022-07-10T13:48:34;8.43;;;1.80;;
5923;SDS011;2987;50.884;14.818;2022-07-10T13:51:01;10.30;;;1.93;;
5923;SDS011;2987;50.884;14.818;2022-07-10T13:53:27;9.00;;;1.80;;
5923;SDS011;2987;50.884;14.818;2022-07-10T13:55:53;4.23;;;1.40;;
5923;SDS011;2987;50.884;14.818;2022-07-10T13:58:19;7.47;;;1.83;;
5923;SDS011;2987;50.884;14.818;2022-07-10T14:00:47;6.27;;;1.80;;
5923;SDS011;2987;50.884;14.818;2022-07-10T14:03:13;5.47;;;1.63;;
5923;SDS011;2987;50.884;14.818;2022-07-10T14:05:39;6.90;;;2.03;;
5923;SDS011;2987;50.884;14.818;2022-07-10T14:08:05;6.67;;;2.00;;
5923;SDS011;2987;50.884;14.818;2022-07-10T14:10:31;6.17;;;1.73;;
5923;SDS011;2987;50.884;14.818;2022-07-10T14:12:58;6.63;;;1.53;;
5923;SDS011;2987;50.884;14.818;2022-07-10T14:15:25;6.93;;;1.43;;
5923;SDS011;2987;50.884;14.818;2022-07-10T14:17:51;6.37;;;1.60;;
5923;SDS011;2987;50.884;14.818;2022-07-10T14:20:18;8.60;;;1.70;;
5923;SDS011;2987;50.884;14.818;2022-07-10T14:22:44;4.40;;;1.63;;
5923;SDS011;2987;50.884;14.818;2022-07-10T14:25:13;5.27;;;1.43;;
5923;SDS011;2987;50.884;14.818;2022-07-10T14:27:41;4.30;;;1.53;;
5923;SDS011;2987;50.884;14.818;2022-07-10T14:30:07;6.30;;;1.70;;
5923;SDS011;2987;50.884;14.818;2022-07-10T14:32:34;4.90;;;1.80;;
5923;SDS011;2987;50.884;14.818;2022-07-10T14:35:00;5.07;;;1.50;;
5923;SDS011;2987;50.884;14.818;2022-07-10T14:37:26;6.57;;;1.70;;
5923;SDS011;2987;50.884;14.818;2022-07-10T14:39:52;3.97;;;1.43;;
5923;SDS011;2987;50.884;14.818;2022-07-10T14:42:19;7.37;;;1.80;;
5923;SDS011;2987;50.884;14.818;2022-07-10T14:44:45;6.03;;;1.40;;
5923;SDS011;2987;50.884;14.818;2022-07-10T14:47:11;6.37;;;1.67;;
5923;SDS011;2987;50.884;14.818;2022-07-10T14:49:37;6.47;;;1.70;;
5923;SDS011;2987;50.884;14.818;2022-07-10T14:52:03;5.67;;;1.87;;
5923;SDS011;2987;50.884;14.818;2022-07-10T14:54:30;4.03;;;1.40;;
5923;SDS011;2987;50.884;14.818;2022-07-10T14:56:56;5.07;;;1.70;;
5923;SDS011;2987;50.884;14.818;2022-07-10T14:59:22;4.27;;;1.60;;
5923;SDS011;2987;50.884;14.818;2022-07-10T15:01:49;6.20;;;1.73;;
5923;SDS011;2987;50.884;14.818;2022-07-10T15:04:15;6.10;;;1.50;;
5923;SDS011;2987;50.884;14.818;2022-07-10T15:06:41;7.90;;;1.77;;
5923;SDS011;2987;50.884;14.818;2022-07-10T15:09:07;4.00;;;1.37;;
5923;SDS011;2987;50.884;14.818;2022-07-10T15:11:33;3.67;;;1.33;;
5923;SDS011;2987;50.884;14.818;2022-07-10T15:14:01;6.17;;;1.37;;
5923;SDS011;2987;50.884;14.818;2022-07-10T15:19:30;5.00;;;1.50;;
5923;SDS011;2987;50.884;14.818;2022-07-10T15:21:56;7.10;;;1.53;;
5923;SDS011;2987;50.884;14.818;2022-07-10T15:24:23;8.73;;;1.63;;
5923;SDS011;2987;50.884;14.818;2022-07-10T15:26:49;4.27;;;1.27;;
5923;SDS011;2987;50.884;14.818;2022-07-10T15:29:16;9.53;;;1.67;;
5923;SDS011;2987;50.884;14.818;2022-07-10T15:31:42;7.43;;;1.70;;
5923;SDS011;2987;50.884;14.818;2022-07-10T15:34:10;4.13;;;1.60;;
5923;SDS011;2987;50.884;14.818;2022-07-10T15:36:38;5.17;;;1.60;;
5923;SDS011;2987;50.884;14.818;2022-07-10T15:39:05;6.43;;;1.90;;
5923;SDS011;2987;50.884;14.818;2022-07-10T15:41:31;7.37;;;1.67;;
5923;SDS011;2987;50.884;14.818;2022-07-10T15:43:59;3.53;;;1.50;;
5923;SDS011;2987;50.884;14.818;2022-07-10T15:46:26;11.97;;;2.07;;
5923;SDS011;2987;50.884;14.818;2022-07-10T15:48:52;6.47;;;1.63;;
5923;SDS011;2987;50.884;14.818;2022-07-10T15:51:19;3.90;;;1.30;;
5923;SDS011;2987;50.884;14.818;2022-07-10T15:53:45;7.23;;;2.10;;
5923;SDS011;2987;50.884;14.818;2022-07-10T15:56:11;6.10;;;1.97;;
5923;SDS011;2987;50.884;14.818;2022-07-10T15:58:39;7.47;;;1.83;;